Fair Isle, United Kingdom
Current Conditions -  °F | °C
As of 8:50 AM on Wednesday 26 Nov 2014 (Local Time) from EGPB Reporting Station
Scattered Clouds Scattered Clouds  
Wind Chill: 43°   Ceiling: Unl
Heat Index: 48°   Visibility: 6mi
Dew Point: 45°   Wind: 14mph
Humidity: 87%   Direction: 180°S
Pressure: 30"   Gusts: NA
Location:  59.53°N, 1.63°W
Report Text: EGPB 260850Z 18012KT 9999 FEW018 SCT045 09/07 Q1016 NOSIG
Loading
Personal Weather Stations






























Interactive Weather Map New forecast layout! Learn more

10-Day Weather Forecast

Advertisements
Track Severe Weather on mobile